Time;durP1;ratioP1;P1;durP2;ratioP2;P2;SDS_P1;SDS_P2;PMS_P1;PMS_P2;Temp;Humidity;BMP_temperature;BMP_pressure;BME280_temperature;BME280_humidity;BME280_pressure;Samples;Min_cycle;Max_cycle;Signal;HPM_P1;HPM_P2
2022/03/11 00:04:49;;;;;;;12.85;6.80;;;10.40;67.50;;;;;;10489155;28;20027;-63
2022/03/11 00:09:50;;;;;;;13.23;6.93;;;10.40;67.50;;;;;;10475176;28;20035;-62
2022/03/11 00:14:51;;;;;;;12.13;6.60;;;10.40;67.40;;;;;;10488525;28;20021;-62
2022/03/11 00:19:51;;;;;;;13.68;6.97;;;10.30;67.40;;;;;;10477761;28;20232;-61
2022/03/11 00:24:52;;;;;;;13.05;7.07;;;10.30;67.50;;;;;;10476702;28;20237;-63
2022/03/11 00:29:53;;;;;;;13.27;6.75;;;10.30;67.60;;;;;;10487989;28;20033;-62
2022/03/11 00:34:54;;;;;;;11.77;6.70;;;10.30;67.70;;;;;;10485205;28;20019;-62
2022/03/11 00:39:54;;;;;;;14.75;7.57;;;10.20;67.60;;;;;;10487087;28;20045;-61
2022/03/11 00:44:55;;;;;;;10.73;5.88;;;10.20;67.50;;;;;;10487135;28;20041;-61
2022/03/11 00:49:56;;;;;;;12.48;6.60;;;10.20;67.50;;;;;;10487233;28;20070;-62
2022/03/11 00:54:57;;;;;;;12.15;6.45;;;10.50;67.80;;;;;;10486008;28;20089;-63
2022/03/11 00:59:57;;;;;;;11.85;6.28;;;10.10;67.60;;;;;;10487317;28;20044;-63
2022/03/11 01:04:58;;;;;;;11.93;6.43;;;10.10;67.60;;;;;;10487142;28;20028;-65
2022/03/11 01:10:00;;;;;;;13.25;6.90;;;10.10;67.80;;;;;;10486584;28;20036;-61
2022/03/11 01:15:00;;;;;;;13.25;7.38;;;10.10;67.70;;;;;;10486650;28;20423;-60
2022/03/11 01:20:03;;;;;;;13.60;6.63;;;10.00;67.70;;;;;;10486008;28;20178;-61
2022/03/11 01:25:05;;;;;;;13.15;6.47;;;10.00;67.80;;;;;;10486238;28;20020;-61
2022/03/11 01:30:09;;;;;;;11.63;6.53;;;10.00;67.80;;;;;;10485541;28;20064;-62
2022/03/11 01:35:11;;;;;;;10.25;6.50;;;9.90;68.00;;;;;;10485935;28;20026;-62
2022/03/11 01:40:12;;;;;;;12.00;6.63;;;9.90;67.90;;;;;;10481842;28;20044;-62
2022/03/11 01:45:13;;;;;;;11.25;6.45;;;9.90;68.00;;;;;;10478646;28;20291;-60
2022/03/11 01:50:13;;;;;;;10.27;5.80;;;9.90;68.10;;;;;;10482998;28;20036;-60
2022/03/11 01:55:14;;;;;;;14.63;6.18;;;9.80;68.10;;;;;;10484575;28;20048;-61
2022/03/11 02:00:15;;;;;;;11.07;6.10;;;9.80;68.10;;;;;;10483939;28;20384;-62
2022/03/11 02:05:17;;;;;;;10.35;6.22;;;9.80;68.10;;;;;;10479933;28;20028;-61
2022/03/11 02:10:18;;;;;;;10.75;6.05;;;9.80;68.10;;;;;;10484323;28;20032;-63
2022/03/11 02:15:19;;;;;;;11.85;6.43;;;9.80;68.30;;;;;;10483954;28;20090;-62
2022/03/11 02:20:20;;;;;;;13.70;6.25;;;9.80;69.00;;;;;;10481359;28;20071;-63
2022/03/11 02:25:21;;;;;;;10.77;6.10;;;9.70;68.40;;;;;;10484008;28;20032;-62
2022/03/11 02:30:21;;;;;;;11.52;5.55;;;9.70;68.40;;;;;;10483098;28;20032;-63
2022/03/11 02:35:22;;;;;;;11.45;5.97;;;9.70;68.60;;;;;;10483975;28;20024;-64
2022/03/11 02:40:23;;;;;;;11.07;5.68;;;9.70;68.50;;;;;;10484132;28;20470;-63
2022/03/11 02:45:24;;;;;;;9.90;5.47;;;9.60;68.60;;;;;;10468540;28;20031;-63
2022/03/11 02:50:24;;;;;;;10.60;6.32;;;9.60;68.70;;;;;;10483547;28;20150;-64
2022/03/11 02:55:25;;;;;;;10.68;5.93;;;9.60;68.70;;;;;;10483074;28;20766;-63
2022/03/11 03:00:26;;;;;;;11.75;6.40;;;9.50;68.60;;;;;;10483596;28;20046;-63
2022/03/11 03:05:27;;;;;;;12.50;6.35;;;9.50;68.80;;;;;;10483390;28;20028;-63
2022/03/11 03:10:28;;;;;;;11.38;5.85;;;9.50;68.80;;;;;;10483341;28;20032;-63
2022/03/11 03:15:29;;;;;;;10.65;5.97;;;9.50;68.90;;;;;;10451479;28;20398;-62
2022/03/11 03:20:29;;;;;;;11.85;6.07;;;9.40;68.90;;;;;;10487093;28;20418;-64
2022/03/11 03:25:30;;;;;;;13.07;6.15;;;9.40;69.00;;;;;;10490247;28;20028;-64
2022/03/11 03:30:31;;;;;;;11.75;5.85;;;9.40;69.00;;;;;;10490127;28;20162;-64
2022/03/11 03:35:31;;;;;;;11.95;6.82;;;9.40;69.10;;;;;;10489946;28;20514;-64
2022/03/11 03:40:32;;;;;;;12.82;6.50;;;9.30;69.10;;;;;;10489655;28;20566;-62
2022/03/11 03:45:34;;;;;;;13.95;6.60;;;9.30;69.20;;;;;;10480599;28;20036;-62
2022/03/11 03:50:35;;;;;;;9.98;5.72;;;9.30;69.30;;;;;;10489634;28;20037;-61
2022/03/11 03:55:36;;;;;;;11.18;6.40;;;9.30;69.40;;;;;;10489528;28;20024;-65
2022/03/11 04:00:36;;;;;;;12.30;6.43;;;9.30;69.40;;;;;;10488913;28;20127;-65
2022/03/11 04:05:40;;;;;;;12.85;6.78;;;9.20;69.40;;;;;;10488837;28;20072;-61
2022/03/11 04:10:41;;;;;;;12.32;5.80;;;9.20;69.50;;;;;;10488354;28;20028;-63
2022/03/11 04:15:42;;;;;;;11.40;6.00;;;9.20;69.40;;;;;;10476032;28;20466;-63
2022/03/11 04:20:43;;;;;;;11.80;6.32;;;9.20;69.40;;;;;;10487758;28;20032;-62
2022/03/11 04:25:44;;;;;;;12.23;6.22;;;9.20;69.40;;;;;;10488499;28;20056;-63
2022/03/11 04:30:44;;;;;;;11.88;6.40;;;9.10;69.50;;;;;;10487872;28;20036;-63
2022/03/11 04:35:46;;;;;;;12.25;6.53;;;9.10;69.50;;;;;;10487915;28;20020;-62
2022/03/11 04:40:46;;;;;;;15.50;7.07;;;9.10;69.60;;;;;;10487317;28;20076;-63
2022/03/11 04:45:47;;;;;;;13.15;7.05;;;9.10;69.50;;;;;;10486938;28;20037;-62
2022/03/11 04:50:48;;;;;;;12.20;6.53;;;9.10;69.70;;;;;;10486861;28;20024;-63
2022/03/11 04:55:49;;;;;;;10.70;6.25;;;9.00;70.20;;;;;;10486941;28;20325;-62
2022/03/11 05:00:49;;;;;;;13.48;6.43;;;9.00;69.60;;;;;;10466241;28;20072;-61
2022/03/11 05:05:50;;;;;;;13.93;6.72;;;9.00;69.90;;;;;;10479727;28;20422;-63
2022/03/11 05:10:51;;;;;;;12.98;6.70;;;9.00;70.00;;;;;;10475170;28;20036;-62
2022/03/11 05:15:52;;;;;;;14.40;6.70;;;9.00;70.00;;;;;;10478758;28;20441;-63
2022/03/11 05:20:53;;;;;;;12.50;6.43;;;9.00;70.20;;;;;;10483234;28;20044;-66
2022/03/11 05:25:54;;;;;;;12.68;6.50;;;8.90;70.20;;;;;;10452963;28;20108;-63
2022/03/11 05:30:55;;;;;;;12.88;6.68;;;8.90;70.30;;;;;;10477618;28;20482;-63
2022/03/11 05:35:55;;;;;;;10.55;6.20;;;8.90;70.40;;;;;;10484789;28;20533;-63
2022/03/11 05:40:56;;;;;;;14.65;7.00;;;8.80;70.50;;;;;;10484091;28;20071;-66
2022/03/11 05:45:57;;;;;;;13.73;7.75;;;8.80;70.60;;;;;;10461995;28;20028;-65
2022/03/11 05:50:58;;;;;;;15.90;7.43;;;8.80;70.70;;;;;;10485187;28;20043;-62
2022/03/11 05:55:58;;;;;;;13.20;7.45;;;8.80;70.70;;;;;;10485497;28;20035;-62
2022/03/11 06:00:59;;;;;;;15.82;7.75;;;8.80;70.70;;;;;;10485110;28;20033;-65
2022/03/11 06:06:00;;;;;;;13.32;7.00;;;8.70;71.30;;;;;;10485000;28;20376;-61
2022/03/11 06:11:01;;;;;;;14.50;7.05;;;8.70;71.00;;;;;;10484194;28;20048;-63
2022/03/11 06:16:02;;;;;;;14.60;7.20;;;8.70;71.00;;;;;;10484772;28;20490;-65
2022/03/11 06:21:03;;;;;;;13.88;7.47;;;8.70;71.10;;;;;;10484617;28;20078;-65
2022/03/11 06:26:04;;;;;;;15.05;7.72;;;8.60;71.20;;;;;;10465302;28;20321;-64
2022/03/11 06:31:08;;;;;;;16.85;7.82;;;8.70;71.10;;;;;;10484796;28;20028;-65
2022/03/11 06:36:08;;;;;;;15.77;7.20;;;8.60;71.10;;;;;;10466463;28;20066;-64
2022/03/11 06:41:09;;;;;;;14.18;7.20;;;8.60;71.10;;;;;;10484430;28;20191;-66
2022/03/11 06:46:10;;;;;;;15.02;8.20;;;8.60;71.20;;;;;;10484600;28;20024;-65
2022/03/11 06:51:11;;;;;;;18.27;8.85;;;8.60;71.20;;;;;;10483302;28;20032;-64
2022/03/11 06:56:12;;;;;;;16.35;7.78;;;8.60;71.30;;;;;;10487329;28;20029;-65
2022/03/11 07:01:14;;;;;;;16.23;8.55;;;8.60;71.30;;;;;;10490834;28;20036;-65
2022/03/11 07:06:14;;;;;;;16.05;7.97;;;8.60;71.30;;;;;;10477243;28;20052;-67
2022/03/11 07:11:15;;;;;;;14.05;7.20;;;8.60;71.30;;;;;;10490745;28;20039;-65
2022/03/11 07:16:16;;;;;;;17.98;8.27;;;8.60;71.20;;;;;;10489815;28;20028;-66
2022/03/11 07:21:17;;;;;;;16.38;7.72;;;8.60;71.20;;;;;;10472544;28;20479;-64
2022/03/11 07:26:17;;;;;;;19.58;8.60;;;8.60;71.20;;;;;;10466044;28;20364;-66
2022/03/11 07:31:18;;;;;;;15.85;8.30;;;8.60;71.00;;;;;;10492235;28;20021;-67
2022/03/11 07:36:19;;;;;;;17.80;9.00;;;8.60;71.00;;;;;;10469012;28;20036;-64
2022/03/11 07:41:20;;;;;;;19.58;9.68;;;8.60;70.90;;;;;;10449977;28;20044;-64
2022/03/11 07:46:23;;;;;;;17.75;8.80;;;8.70;71.30;;;;;;10456142;28;20071;-63
2022/03/11 07:51:25;;;;;;;21.08;9.35;;;8.80;70.30;;;;;;10465535;28;20039;-63
2022/03/11 07:56:25;;;;;;;21.42;9.32;;;8.90;69.90;;;;;;10488841;28;20016;-66
2022/03/11 08:01:26;;;;;;;20.05;9.48;;;9.10;69.50;;;;;;10489982;28;20483;-66
2022/03/11 08:06:27;;;;;;;18.17;9.18;;;9.20;69.10;;;;;;10441920;28;20024;-69
2022/03/11 08:11:28;;;;;;;17.60;9.40;;;9.30;68.80;;;;;;10455774;28;20502;-68
2022/03/11 08:16:29;;;;;;;18.75;8.93;;;9.40;68.50;;;;;;10453897;28;20013;-68
2022/03/11 08:21:29;;;;;;;15.82;8.90;;;9.50;68.40;;;;;;10450748;28;20558;-67
2022/03/11 08:26:30;;;;;;;18.25;9.68;;;9.50;68.30;;;;;;10447098;28;20036;-68
2022/03/11 08:31:32;;;;;;;22.85;9.93;;;9.60;68.20;;;;;;10454559;28;20037;-66
2022/03/11 08:36:33;;;;;;;20.05;9.40;;;9.60;68.00;;;;;;10452294;28;20112;-65
2022/03/11 08:41:33;;;;;;;22.20;10.15;;;9.70;67.90;;;;;;10447473;28;20041;-67
2022/03/11 08:46:36;;;;;;;20.70;9.90;;;9.70;67.80;;;;;;10454907;28;20021;-68
2022/03/11 08:51:39;;;;;;;18.63;9.10;;;9.70;67.60;;;;;;10449982;28;20174;-64
2022/03/11 08:56:40;;;;;;;19.48;9.88;;;9.70;67.50;;;;;;10475326;28;20024;-66
2022/03/11 09:01:40;;;;;;;17.30;9.05;;;9.70;67.30;;;;;;10476101;28;20406;-66
2022/03/11 09:06:41;;;;;;;19.23;9.32;;;9.70;67.20;;;;;;10475135;28;20456;-65
2022/03/11 09:11:42;;;;;;;19.40;9.75;;;9.80;67.20;;;;;;10487259;28;20078;-65
2022/03/11 09:16:42;;;;;;;18.08;9.23;;;9.80;67.10;;;;;;10486522;28;20021;-65
2022/03/11 09:21:43;;;;;;;20.70;10.18;;;9.80;67.00;;;;;;10486859;28;20335;-65
2022/03/11 09:26:45;;;;;;;22.80;9.73;;;9.80;66.70;;;;;;10482162;28;20189;-64
2022/03/11 09:31:46;;;;;;;19.40;9.88;;;9.80;66.50;;;;;;10485744;28;20032;-65
2022/03/11 09:36:47;;;;;;;22.50;9.77;;;9.80;66.20;;;;;;10486175;28;20029;-64
2022/03/11 09:41:48;;;;;;;19.85;9.85;;;9.90;66.10;;;;;;10485333;28;20057;-64
2022/03/11 09:46:49;;;;;;;18.95;9.35;;;9.90;65.90;;;;;;10485858;28;20024;-65
2022/03/11 09:51:50;;;;;;;21.92;10.50;;;9.90;65.60;;;;;;10478173;28;20040;-64
2022/03/11 09:56:51;;;;;;;18.25;9.93;;;10.00;65.40;;;;;;10485499;28;20025;-65
2022/03/11 10:01:51;;;;;;;17.40;8.55;;;10.00;65.20;;;;;;10485858;28;20044;-64
2022/03/11 10:06:52;;;;;;;20.08;10.15;;;10.10;65.10;;;;;;10485676;28;20060;-61
2022/03/11 10:11:54;;;;;;;20.77;10.27;;;10.20;64.80;;;;;;10485553;28;20028;-65
2022/03/11 10:16:55;;;;;;;20.25;9.77;;;10.20;64.70;;;;;;10484134;28;20056;-62
2022/03/11 10:21:59;;;;;;;21.88;10.60;;;10.30;64.50;;;;;;10483800;28;20037;-63
2022/03/11 10:27:02;;;;;;;17.35;9.88;;;10.30;64.30;;;;;;10486508;28;20029;-62
2022/03/11 10:32:07;;;;;;;19.90;9.70;;;10.40;64.20;;;;;;10492841;28;20376;-64
2022/03/11 10:37:12;;;;;;;19.88;9.75;;;10.50;64.00;;;;;;10493301;28;20038;-63
2022/03/11 10:42:13;;;;;;;20.10;10.10;;;10.50;63.80;;;;;;10492504;28;20044;-64
2022/03/11 10:47:24;;;;;;;19.55;10.10;;;10.60;63.70;;;;;;10486838;28;20044;-65
2022/03/11 10:52:32;;;;;;;24.42;10.63;;;10.70;63.20;;;;;;10487719;28;20017;-64
2022/03/11 10:57:37;;;;;;;20.95;10.10;;;10.70;63.20;;;;;;10491815;28;20143;-65
2022/03/11 11:02:38;;;;;;;22.88;10.80;;;10.70;63.20;;;;;;10491695;28;20049;-65
2022/03/11 11:07:43;;;;;;;20.75;10.23;;;10.80;63.20;;;;;;10491588;28;20033;-64
2022/03/11 11:12:44;;;;;;;21.70;10.65;;;10.90;63.00;;;;;;10491513;28;20040;-63
2022/03/11 11:17:46;;;;;;;21.25;10.32;;;10.90;62.80;;;;;;10490781;28;20491;-65
2022/03/11 11:22:49;;;;;;;19.35;10.45;;;11.00;62.80;;;;;;10491267;28;20479;-65
2022/03/11 11:27:53;;;;;;;25.50;11.93;;;11.10;62.70;;;;;;10489440;28;20028;-63
2022/03/11 11:32:55;;;;;;;24.23;10.75;;;11.10;62.60;;;;;;10474657;28;20040;-63
2022/03/11 11:37:59;;;;;;;21.17;10.20;;;11.10;62.60;;;;;;10490020;28;20040;-65
2022/03/11 11:43:15;;;;;;;21.25;10.52;;;11.20;62.60;;;;;;10489917;28;20087;-63
2022/03/11 11:53:48;;;;;;;22.08;10.90;;;11.40;62.10;;;;;;10489842;28;20030;-62
2022/03/11 11:58:51;;;;;;;23.98;10.65;;;11.40;62.20;;;;;;10488804;28;20514;-64
2022/03/11 12:03:52;;;;;;;27.20;12.25;;;11.40;62.30;;;;;;10489446;28;20466;-64
2022/03/11 12:08:53;;;;;;;22.85;10.75;;;11.40;62.10;;;;;;10489099;28;20039;-65
2022/03/11 12:14:12;;;;;;;22.63;11.23;;;11.50;62.20;;;;;;10489124;28;20031;-64
2022/03/11 12:19:39;;;;;;;21.55;11.48;;;11.50;61.70;;;;;;10476957;28;20029;-65
2022/03/11 12:24:42;;;;;;;24.42;11.57;;;11.60;61.70;;;;;;10488724;28;20024;-65
2022/03/11 12:29:44;;;;;;;21.77;11.38;;;11.50;62.40;;;;;;10489080;28;20399;-65
2022/03/11 12:34:47;;;;;;;20.75;11.55;;;11.60;62.00;;;;;;10481591;28;20029;-66
2022/03/11 12:39:48;;;;;;;24.50;11.30;;;11.60;62.00;;;;;;10491927;28;20036;-62
2022/03/11 12:44:49;;;;;;;25.27;11.68;;;11.70;62.10;;;;;;10488183;28;20127;-65
2022/03/11 12:50:00;;;;;;;21.60;11.13;;;11.70;62.00;;;;;;10488995;28;20546;-64
2022/03/11 12:55:01;;;;;;;22.67;11.40;;;11.70;61.80;;;;;;10494430;28;20025;-64
2022/03/11 13:00:03;;;;;;;23.23;11.73;;;11.70;61.90;;;;;;10486097;28;20555;-63
2022/03/11 13:05:21;;;;;;;23.75;11.77;;;11.80;62.00;;;;;;10486883;28;20073;-64
2022/03/11 13:10:26;;;;;;;22.33;11.73;;;11.80;61.50;;;;;;10486181;28;20081;-66
2022/03/11 13:15:32;;;;;;;28.55;12.68;;;11.80;61.90;;;;;;10485232;28;20016;-64
2022/03/11 13:20:36;;;;;;;23.52;11.13;;;11.80;61.80;;;;;;10483039;28;20072;-67
2022/03/11 13:25:39;;;;;;;21.95;11.25;;;11.90;61.80;;;;;;10480148;28;20112;-61
2022/03/11 13:30:40;;;;;;;21.48;11.00;;;11.90;61.80;;;;;;10478357;28;20032;-64
2022/03/11 13:35:45;;;;;;;19.13;10.65;;;12.00;61.80;;;;;;10485575;28;20029;-63
2022/03/11 13:40:50;;;;;;;23.95;11.57;;;12.00;61.70;;;;;;10485110;28;20052;-65
2022/03/11 13:45:52;;;;;;;26.15;12.30;;;12.00;61.50;;;;;;10484916;28;20037;-65
2022/03/11 13:51:00;;;;;;;21.58;11.32;;;12.10;61.70;;;;;;10484509;28;20017;-66
2022/03/11 13:56:12;;;;;;;21.70;10.73;;;12.10;61.40;;;;;;10485108;28;20074;-66
2022/03/11 14:01:13;;;;;;;21.70;11.77;;;12.20;61.50;;;;;;10481953;28;20454;-64
2022/03/11 14:06:31;;;;;;;23.30;11.80;;;12.20;61.40;;;;;;10484824;28;20032;-66
2022/03/11 14:11:34;;;;;;;22.92;11.05;;;12.30;61.20;;;;;;10480030;28;20016;-65
2022/03/11 14:16:36;;;;;;;23.17;11.50;;;12.40;61.60;;;;;;10490236;28;20221;-64
2022/03/11 14:21:36;;;;;;;19.77;10.68;;;12.50;61.30;;;;;;10491044;28;20109;-66
2022/03/11 14:26:37;;;;;;;20.52;11.27;;;12.60;61.20;;;;;;10486907;28;20017;-64
2022/03/11 14:31:38;;;;;;;20.35;10.90;;;12.70;61.30;;;;;;10484025;28;20024;-61
2022/03/11 14:36:39;;;;;;;18.80;10.05;;;12.70;61.20;;;;;;10494659;28;20035;-65
2022/03/11 14:41:40;;;;;;;20.33;10.27;;;12.80;61.10;;;;;;10458034;28;20057;-65
2022/03/11 14:46:41;;;;;;;20.13;10.75;;;12.90;61.10;;;;;;10482485;28;20044;-66
2022/03/11 14:51:43;;;;;;;20.00;10.25;;;12.90;61.00;;;;;;10487314;28;20163;-69
2022/03/11 14:56:44;;;;;;;20.60;10.10;;;13.00;60.70;;;;;;10482055;28;20124;-69
2022/03/11 15:01:45;;;;;;;17.73;9.13;;;13.10;60.70;;;;;;10478720;28;20593;-70
2022/03/11 15:06:46;;;;;;;22.45;10.85;;;13.20;60.20;;;;;;10454449;28;20025;-69
2022/03/11 15:11:49;;;;;;;18.65;10.10;;;13.30;59.80;;;;;;10473690;28;20422;-71
2022/03/11 15:16:50;;;;;;;17.83;8.98;;;13.30;59.40;;;;;;10470759;28;20393;-70
2022/03/11 15:21:51;;;;;;;20.05;9.90;;;13.30;59.00;;;;;;10471305;28;20829;-68
2022/03/11 15:26:51;;;;;;;18.20;10.00;;;13.40;58.90;;;;;;10461164;28;20060;-67
2022/03/11 15:31:53;;;;;;;18.02;8.75;;;13.30;58.90;;;;;;10461432;28;20043;-63
2022/03/11 15:36:54;;;;;;;18.88;8.85;;;13.30;58.80;;;;;;10451776;28;20071;-70
2022/03/11 15:41:55;;;;;;;18.33;9.35;;;13.20;58.80;;;;;;10451003;28;20060;-68
2022/03/11 15:46:56;;;;;;;22.90;9.15;;;13.10;58.80;;;;;;10454392;28;20033;-65
2022/03/11 15:51:57;;;;;;;19.05;8.98;;;13.00;58.80;;;;;;10455675;28;20100;-71
2022/03/11 15:56:58;;;;;;;16.73;8.80;;;12.90;58.70;;;;;;10452919;28;20393;-70
2022/03/11 16:01:59;;;;;;;18.02;8.70;;;12.90;58.90;;;;;;10461616;28;20034;-70
2022/03/11 16:06:59;;;;;;;18.60;8.57;;;12.80;58.90;;;;;;10488549;28;20123;-67
2022/03/11 16:12:00;;;;;;;19.67;10.00;;;12.70;58.90;;;;;;10475130;28;20487;-67
2022/03/11 16:17:02;;;;;;;16.33;8.52;;;12.70;58.90;;;;;;10489639;28;20021;-67
2022/03/11 16:22:03;;;;;;;17.40;9.00;;;12.70;58.90;;;;;;10475765;28;20166;-69
2022/03/11 16:27:04;;;;;;;18.52;8.65;;;12.60;59.10;;;;;;10487861;28;20062;-70
2022/03/11 16:32:05;;;;;;;18.70;8.95;;;12.60;59.20;;;;;;10496825;28;20152;-70
2022/03/11 16:37:07;;;;;;;13.48;8.10;;;12.50;59.60;;;;;;10493883;28;20024;-68
2022/03/11 16:42:08;;;;;;;17.48;8.88;;;12.50;60.40;;;;;;10508876;28;20146;-67
2022/03/11 16:47:09;;;;;;;16.13;8.43;;;12.40;59.80;;;;;;10494109;28;20421;-63
2022/03/11 16:52:12;;;;;;;18.05;8.35;;;12.40;60.10;;;;;;10493992;28;20110;-68
2022/03/11 16:57:13;;;;;;;13.45;7.43;;;12.40;60.40;;;;;;10491805;28;20032;-69
2022/03/11 17:02:14;;;;;;;15.45;6.90;;;12.30;60.50;;;;;;10483805;28;20055;-66
2022/03/11 17:07:15;;;;;;;15.55;7.00;;;12.30;59.70;;;;;;10472108;28;20396;-68
2022/03/11 17:12:15;;;;;;;11.38;6.63;;;12.20;59.90;;;;;;10487039;28;20261;-60
2022/03/11 17:17:16;;;;;;;19.60;7.18;;;12.20;59.30;;;;;;10484361;28;20016;-64
2022/03/11 17:22:17;;;;;;;16.15;7.80;;;12.10;59.30;;;;;;10478619;28;20059;-66
2022/03/11 17:27:18;;;;;;;13.32;7.13;;;12.10;59.50;;;;;;10483347;28;20048;-69
2022/03/11 17:32:19;;;;;;;16.23;7.13;;;12.10;59.20;;;;;;10484617;28;20021;-67
2022/03/11 17:37:20;;;;;;;16.70;7.50;;;12.10;59.60;;;;;;10486247;28;20536;-69
2022/03/11 17:42:21;;;;;;;22.35;7.63;;;12.00;59.90;;;;;;10480848;28;20049;-67
2022/03/11 17:47:23;;;;;;;12.75;6.72;;;11.60;60.00;;;;;;10477766;28;20383;-68
2022/03/11 17:52:24;;;;;;;17.42;7.43;;;12.00;60.10;;;;;;10458387;28;20039;-65
2022/03/11 17:57:25;;;;;;;15.20;6.75;;;11.90;60.10;;;;;;10468868;28;20039;-64
2022/03/11 18:02:26;;;;;;;11.75;6.28;;;11.80;59.80;;;;;;10466618;28;20376;-63
2022/03/11 18:07:29;;;;;;;13.15;7.13;;;11.80;59.50;;;;;;10481688;28;20025;-62
2022/03/11 18:12:30;;;;;;;15.93;6.80;;;11.80;59.40;;;;;;10452844;28;20033;-62
2022/03/11 18:17:31;;;;;;;13.02;6.13;;;11.80;59.20;;;;;;10455878;28;20071;-65
2022/03/11 18:22:33;;;;;;;12.30;6.07;;;11.70;58.80;;;;;;10465636;28;20071;-68
2022/03/11 18:27:34;;;;;;;10.90;5.93;;;11.70;59.40;;;;;;10486101;28;20469;-62
2022/03/11 18:32:35;;;;;;;11.18;6.30;;;11.70;59.20;;;;;;10458613;28;20472;-68
2022/03/11 18:37:36;;;;;;;11.73;5.78;;;11.60;59.30;;;;;;10448462;28;20028;-66
2022/03/11 18:42:38;;;;;;;13.00;6.47;;;11.60;59.10;;;;;;10446148;28;20044;-72
2022/03/11 18:47:39;;;;;;;13.30;6.43;;;11.60;58.80;;;;;;10454776;28;20124;-67
2022/03/11 18:52:40;;;;;;;12.48;5.60;;;11.50;58.70;;;;;;10457392;28;20488;-68
2022/03/11 18:57:41;;;;;;;11.52;5.82;;;11.50;58.40;;;;;;10456782;28;20494;-58
2022/03/11 19:02:42;;;;;;;10.35;5.72;;;11.50;58.30;;;;;;10457796;28;20037;-60
2022/03/11 19:07:43;;;;;;;8.98;5.22;;;11.50;58.20;;;;;;10455998;28;20017;-64
2022/03/11 19:12:45;;;;;;;11.68;5.60;;;11.40;58.00;;;;;;10462968;28;20039;-64
2022/03/11 19:17:46;;;;;;;10.00;4.78;;;11.40;57.80;;;;;;10489202;28;20103;-64
2022/03/11 19:22:47;;;;;;;9.90;5.60;;;11.30;57.50;;;;;;10484265;28;20033;-63
2022/03/11 19:27:48;;;;;;;11.48;5.38;;;11.30;57.20;;;;;;10491141;28;20381;-65
2022/03/11 19:32:53;;;;;;;9.52;4.50;;;11.30;57.00;;;;;;10491394;28;20508;-63
2022/03/11 19:37:56;;;;;;;9.10;4.97;;;11.30;56.80;;;;;;10467474;28;20028;-62
2022/03/11 19:42:59;;;;;;;7.18;4.15;;;11.30;56.80;;;;;;10482417;28;20538;-63
2022/03/11 19:48:03;;;;;;;8.88;4.75;;;11.30;57.00;;;;;;10480124;28;20435;-70
2022/03/11 19:53:04;;;;;;;9.18;4.50;;;11.30;57.50;;;;;;10487769;28;20068;-65
2022/03/11 19:58:06;;;;;;;12.30;4.68;;;11.20;56.60;;;;;;10479248;28;20059;-67
2022/03/11 20:03:07;;;;;;;10.35;5.03;;;11.20;56.70;;;;;;10484254;28;20045;-64
2022/03/11 20:08:09;;;;;;;8.50;5.00;;;11.20;56.60;;;;;;10481059;28;20032;-64
2022/03/11 20:13:12;;;;;;;9.32;4.85;;;11.10;56.50;;;;;;10480638;28;20067;-63
2022/03/11 20:18:15;;;;;;;8.98;4.93;;;11.10;56.60;;;;;;10484772;28;20043;-64
2022/03/11 20:23:17;;;;;;;10.20;4.93;;;11.10;56.60;;;;;;10478273;28;20067;-64
2022/03/11 20:28:18;;;;;;;10.75;5.18;;;11.10;56.60;;;;;;10483246;28;20709;-64
2022/03/11 20:33:19;;;;;;;13.25;5.60;;;11.10;56.50;;;;;;10481769;28;20032;-64
2022/03/11 20:38:20;;;;;;;10.73;4.88;;;11.00;56.30;;;;;;10480735;28;20059;-64
2022/03/11 20:43:21;;;;;;;10.20;5.30;;;11.00;56.30;;;;;;10476096;28;20087;-63
2022/03/11 20:48:22;;;;;;;9.50;5.25;;;10.90;56.20;;;;;;10465644;28;20050;-62
2022/03/11 20:53:24;;;;;;;9.50;5.60;;;10.90;56.10;;;;;;10483730;28;20077;-64
2022/03/11 20:58:25;;;;;;;10.38;5.50;;;10.90;56.00;;;;;;10485298;28;20241;-65
2022/03/11 21:03:26;;;;;;;11.00;5.50;;;10.90;55.80;;;;;;10483399;28;20029;-65
2022/03/11 21:08:29;;;;;;;11.57;5.97;;;10.80;55.70;;;;;;10482501;28;20037;-64
2022/03/11 21:13:30;;;;;;;11.82;6.22;;;10.80;55.70;;;;;;10483186;28;20060;-64
2022/03/11 21:18:31;;;;;;;9.45;5.00;;;10.80;55.60;;;;;;10483593;28;20136;-63
2022/03/11 21:23:34;;;;;;;11.32;5.53;;;10.80;56.20;;;;;;10474723;28;20021;-65
2022/03/11 21:28:34;;;;;;;11.45;5.28;;;10.80;55.60;;;;;;10476598;28;20041;-64
2022/03/11 21:33:37;;;;;;;10.45;5.55;;;10.70;55.50;;;;;;10482681;28;20021;-63
2022/03/11 21:38:38;;;;;;;9.38;5.50;;;10.70;55.50;;;;;;10473496;28;20465;-64
2022/03/11 21:43:39;;;;;;;10.68;5.70;;;10.70;55.50;;;;;;10476089;28;20148;-60
2022/03/11 21:48:40;;;;;;;11.57;5.85;;;10.70;55.40;;;;;;10478163;28;20553;-65
2022/03/11 21:53:41;;;;;;;9.60;5.80;;;10.70;55.50;;;;;;10481868;28;20127;-64
2022/03/11 21:58:43;;;;;;;9.80;5.30;;;10.60;55.50;;;;;;10478369;28;20047;-63
2022/03/11 22:03:44;;;;;;;11.00;6.07;;;10.60;55.50;;;;;;10479636;28;20027;-65
2022/03/11 22:08:46;;;;;;;15.45;5.93;;;10.60;55.50;;;;;;10475317;28;20063;-63
2022/03/11 22:13:47;;;;;;;10.30;5.50;;;10.60;55.50;;;;;;10468137;28;20404;-65
2022/03/11 22:18:49;;;;;;;10.88;5.22;;;10.60;55.50;;;;;;10475613;28;20541;-64
2022/03/11 22:23:50;;;;;;;11.45;5.70;;;10.50;55.50;;;;;;10480475;28;20029;-66
2022/03/11 22:28:51;;;;;;;11.23;5.85;;;10.50;55.50;;;;;;10492948;28;21111;-65
2022/03/11 22:33:53;;;;;;;10.00;6.18;;;10.50;55.50;;;;;;10491072;28;20335;-66
2022/03/11 22:38:55;;;;;;;10.90;5.95;;;10.50;55.40;;;;;;10492224;28;20067;-64
2022/03/11 22:43:57;;;;;;;10.88;5.82;;;10.50;55.40;;;;;;10476031;28;20048;-63
2022/03/11 22:48:57;;;;;;;10.80;5.72;;;10.50;55.40;;;;;;10471648;28;20029;-65
2022/03/11 22:54:01;;;;;;;10.30;5.63;;;10.50;55.50;;;;;;10467508;28;20391;-66
2022/03/11 22:59:12;;;;;;;11.52;5.72;;;10.50;55.40;;;;;;10462784;28;20041;-65
2022/03/11 23:04:15;;;;;;;10.68;6.00;;;10.50;55.30;;;;;;10482019;28;20467;-63
2022/03/11 23:09:30;;;;;;;9.00;5.38;;;10.40;55.20;;;;;;10493238;28;20039;-63
2022/03/11 23:14:34;;;;;;;11.65;5.30;;;10.40;55.10;;;;;;10495357;28;20598;-65
2022/03/11 23:19:36;;;;;;;10.00;5.32;;;10.40;55.20;;;;;;10495106;28;20040;-62
2022/03/11 23:24:37;;;;;;;10.75;5.57;;;10.40;55.20;;;;;;10491145;28;20025;-65
2022/03/11 23:29:38;;;;;;;10.30;5.63;;;10.40;55.30;;;;;;10493090;28;20112;-64
2022/03/11 23:34:38;;;;;;;10.25;5.80;;;10.30;55.30;;;;;;10493187;28;20047;-62
2022/03/11 23:39:39;;;;;;;12.07;6.28;;;10.30;55.30;;;;;;10484117;28;20043;-65
2022/03/11 23:44:40;;;;;;;10.00;5.57;;;10.30;55.40;;;;;;10484268;28;20620;-64
2022/03/11 23:49:41;;;;;;;9.95;5.35;;;10.30;55.40;;;;;;10483056;28;20039;-62
2022/03/11 23:54:42;;;;;;;9.90;5.85;;;10.30;55.40;;;;;;10486350;28;20390;-63
2022/03/11 23:59:42;;;;;;;8.88;5.20;;;10.30;55.50;;;;;;10483871;28;20032;-63
